Time;durP1;ratioP1;P1;durP2;ratioP2;P2;SDS_P1;SDS_P2;PMS_P1;PMS_P2;Temp;Humidity;BMP_temperature;BMP_pressure;BME280_temperature;BME280_humidity;BME280_pressure;Samples;Min_cycle;Max_cycle;Signal;HPM_P1;HPM_P2
2022/06/23 00:00:58;;;;;;;6.82;1.98;;;;;;;;;;5087078;28;20066;-58
2022/06/23 00:03:25;;;;;;;4.65;2.15;;;;;;;;;;5084359;28;20528;-58
2022/06/23 00:05:55;;;;;;;4.32;2.08;;;;;;;;;;5084948;28;20110;-57
2022/06/23 00:08:21;;;;;;;5.90;2.63;;;;;;;;;;5077975;28;20484;-57
2022/06/23 00:10:49;;;;;;;5.10;2.25;;;;;;;;;;5086547;28;20090;-58
2022/06/23 00:13:21;;;;;;;3.83;2.40;;;;;;;;;;5086648;28;20116;-58
2022/06/23 00:15:47;;;;;;;4.90;1.98;;;;;;;;;;5077087;28;20072;-58
2022/06/23 00:18:19;;;;;;;4.63;2.30;;;;;;;;;;5076257;28;20028;-58
2022/06/23 00:20:47;;;;;;;2.95;1.98;;;;;;;;;;5086224;28;20032;-58
2022/06/23 00:23:23;;;;;;;5.47;2.72;;;;;;;;;;5075095;28;20105;-58
2022/06/23 00:25:52;;;;;;;4.72;2.30;;;;;;;;;;5079851;28;20036;-58
2022/06/23 00:28:23;;;;;;;6.45;2.65;;;;;;;;;;5081514;28;20716;-57
2022/06/23 00:30:52;;;;;;;4.78;2.65;;;;;;;;;;5074303;28;20036;-58
2022/06/23 00:33:20;;;;;;;4.47;2.40;;;;;;;;;;5070446;28;20033;-58
2022/06/23 00:35:47;;;;;;;5.82;2.90;;;;;;;;;;5082345;28;20059;-58
2022/06/23 00:38:26;;;;;;;4.40;2.60;;;;;;;;;;5076036;28;20131;-58
2022/06/23 00:40:53;;;;;;;5.57;2.85;;;;;;;;;;5074589;28;20305;-58
2022/06/23 00:43:20;;;;;;;4.40;2.60;;;;;;;;;;5081909;28;20057;-58
2022/06/23 00:45:56;;;;;;;4.90;2.75;;;;;;;;;;5070581;28;20474;-58
2022/06/23 00:48:22;;;;;;;6.38;2.88;;;;;;;;;;5081754;28;20048;-58
2022/06/23 00:50:48;;;;;;;3.88;2.58;;;;;;;;;;5085179;28;20043;-59
2022/06/23 00:53:17;;;;;;;5.03;2.83;;;;;;;;;;5085063;28;20165;-57
2022/06/23 00:55:43;;;;;;;;;;;;;;;;;;5083658;28;20040;-58
2022/06/23 00:58:19;;;;;;;5.40;2.67;;;;;;;;;;5079810;28;20297;-58
2022/06/23 01:00:45;;;;;;;6.43;3.00;;;;;;;;;;5077437;28;20043;-58
2022/06/23 01:03:27;;;;;;;4.05;2.72;;;;;;;;;;5075757;28;20051;-58
2022/06/23 01:05:57;;;;;;;4.47;2.50;;;;;;;;;;5085717;28;20040;-58
2022/06/23 01:08:29;;;;;;;6.70;2.83;;;;;;;;;;5081112;28;20123;-58
2022/06/23 01:11:00;;;;;;;6.97;3.00;;;;;;;;;;5082596;28;20124;-58
2022/06/23 01:13:34;;;;;;;5.22;3.10;;;;;;;;;;5081925;28;20032;-58
2022/06/23 01:16:13;;;;;;;6.93;3.67;;;;;;;;;;5077764;28;20044;-58
2022/06/23 01:18:41;;;;;;;6.25;3.05;;;;;;;;;;5075924;28;20056;-58
2022/06/23 01:21:13;;;;;;;5.70;2.97;;;;;;;;;;5085871;28;20032;-58
2022/06/23 01:24:00;;;;;;;4.90;2.95;;;;;;;;;;5070648;28;20051;-57
2022/06/23 01:26:27;;;;;;;7.78;3.78;;;;;;;;;;5084626;28;20043;-58
2022/06/23 01:29:10;;;;;;;6.25;3.28;;;;;;;;;;5080215;28;20123;-58
2022/06/23 01:31:45;;;;;;;6.45;3.50;;;;;;;;;;5085054;28;20114;-58
2022/06/23 01:34:17;;;;;;;9.20;3.50;;;;;;;;;;5082923;28;20040;-58
2022/06/23 01:36:54;;;;;;;6.35;3.90;;;;;;;;;;5083804;28;20052;-58
2022/06/23 01:39:20;;;;;;;6.07;4.28;;;;;;;;;;5078896;28;20040;-58
2022/06/23 01:41:49;;;;;;;6.22;4.03;;;;;;;;;;5081619;28;20044;-58
2022/06/23 01:44:19;;;;;;;8.02;4.10;;;;;;;;;;5073853;28;20044;-58
2022/06/23 01:46:48;;;;;;;6.95;4.07;;;;;;;;;;5081066;28;20082;-58
2022/06/23 01:49:29;;;;;;;7.50;4.28;;;;;;;;;;5071975;28;20143;-58
2022/06/23 01:52:01;;;;;;;7.38;4.30;;;;;;;;;;5068937;28;20044;-58
2022/06/23 01:54:31;;;;;;;6.68;4.38;;;;;;;;;;5073390;28;20526;-58
2022/06/23 01:57:16;;;;;;;10.45;4.60;;;;;;;;;;5077432;28;20128;-58
2022/06/23 01:59:52;;;;;;;7.25;4.47;;;;;;;;;;5076944;28;20040;-57
2022/06/23 02:02:28;;;;;;;6.50;4.18;;;;;;;;;;5083810;28;20051;-58
2022/06/23 02:04:54;;;;;;;7.22;4.20;;;;;;;;;;5084385;28;20040;-58
2022/06/23 02:07:27;;;;;;;6.93;4.35;;;;;;;;;;5084450;28;20028;-58
2022/06/23 02:09:54;;;;;;;10.05;4.55;;;;;;;;;;5083741;28;20051;-58
2022/06/23 02:12:24;;;;;;;7.30;4.57;;;;;;;;;;5082968;28;20048;-58
2022/06/23 02:14:53;;;;;;;8.07;4.65;;;;;;;;;;5084124;28;20035;-58
2022/06/23 02:17:34;;;;;;;10.05;5.05;;;;;;;;;;5082338;28;20493;-57
2022/06/23 02:20:17;;;;;;;9.80;4.57;;;;;;;;;;5084107;28;20076;-58
2022/06/23 02:22:44;;;;;;;8.45;4.82;;;;;;;;;;5078082;28;20094;-58
2022/06/23 02:25:15;;;;;;;7.78;4.53;;;;;;;;;;5073494;28;20093;-61
2022/06/23 02:27:46;;;;;;;11.57;5.30;;;;;;;;;;5074100;28;20046;-58
2022/06/23 02:30:15;;;;;;;9.05;4.95;;;;;;;;;;5083886;28;20044;-58
2022/06/23 02:32:58;;;;;;;9.27;4.55;;;;;;;;;;5075015;28;20028;-58
2022/06/23 02:35:27;;;;;;;9.73;5.22;;;;;;;;;;5066764;28;20048;-58
2022/06/23 02:37:53;;;;;;;9.40;4.80;;;;;;;;;;5077491;28;20127;-58
2022/06/23 02:40:31;;;;;;;8.60;5.03;;;;;;;;;;5083837;28;20130;-58
2022/06/23 02:43:04;;;;;;;8.75;4.97;;;;;;;;;;5080443;28;20051;-58
2022/06/23 02:45:50;;;;;;;7.85;4.82;;;;;;;;;;5083529;28;20044;-58
2022/06/23 02:48:22;;;;;;;9.55;5.10;;;;;;;;;;5081564;28;20091;-58
2022/06/23 02:50:49;;;;;;;10.90;5.82;;;;;;;;;;5082948;28;20085;-58
2022/06/23 02:53:16;;;;;;;11.57;5.38;;;;;;;;;;5083295;28;20049;-58
2022/06/23 02:55:45;;;;;;;9.55;5.90;;;;;;;;;;5087749;28;20574;-58
2022/06/23 02:58:16;;;;;;;10.02;5.18;;;;;;;;;;5087620;28;20490;-58
2022/06/23 03:00:59;;;;;;;9.32;5.15;;;;;;;;;;5081693;28;20036;-58
2022/06/23 03:03:42;;;;;;;8.55;5.13;;;;;;;;;;5081175;28;20090;-58
2022/06/23 03:06:16;;;;;;;16.00;5.28;;;;;;;;;;5087728;28;20028;-58
2022/06/23 03:08:54;;;;;;;29.73;6.55;;;;;;;;;;5083358;28;20055;-58
2022/06/23 03:14:21;;;;;;;9.02;4.60;;;;;;;;;;5081307;28;20048;-58
2022/06/23 03:16:50;;;;;;;8.15;4.80;;;;;;;;;;5088097;28;20108;-58
2022/06/23 03:19:20;;;;;;;10.10;4.53;;;;;;;;;;5087664;28;20052;-58
2022/06/23 03:21:48;;;;;;;9.95;5.10;;;;;;;;;;5081492;28;20082;-58
2022/06/23 03:24:23;;;;;;;10.20;5.25;;;;;;;;;;5082171;28;20120;-58
2022/06/23 03:26:51;;;;;;;11.63;4.80;;;;;;;;;;5075343;28;20502;-58
2022/06/23 03:29:22;;;;;;;10.70;5.20;;;;;;;;;;5085630;28;20036;-58
2022/06/23 03:31:48;;;;;;;9.27;4.45;;;;;;;;;;5079975;28;20616;-57
2022/06/23 03:34:24;;;;;;;10.43;4.90;;;;;;;;;;5086923;28;20048;-58
2022/06/23 03:36:55;;;;;;;8.63;5.18;;;;;;;;;;5086978;28;20193;-58
2022/06/23 03:42:11;;;;;;;10.10;5.05;;;;;;;;;;5086892;28;20489;-58
2022/06/23 03:44:49;;;;;;;7.63;4.60;;;;;;;;;;5076814;28;20047;-58
2022/06/23 03:47:29;;;;;;;9.23;5.03;;;;;;;;;;5074958;28;20052;-58
2022/06/23 03:50:01;;;;;;;9.52;5.00;;;;;;;;;;5077651;28;20402;-58
2022/06/23 03:52:37;;;;;;;8.82;5.22;;;;;;;;;;5079258;28;20056;-58
2022/06/23 03:55:17;;;;;;;9.80;5.68;;;;;;;;;;5085113;28;20044;-58
2022/06/23 03:57:47;;;;;;;8.65;5.07;;;;;;;;;;5082745;28;20044;-58
2022/06/23 04:00:19;;;;;;;11.98;5.38;;;;;;;;;;5080226;28;20041;-58
2022/06/23 04:02:48;;;;;;;9.55;5.40;;;;;;;;;;5081237;28;20059;-57
2022/06/23 04:05:18;;;;;;;13.25;5.78;;;;;;;;;;5099834;28;20081;-58
2022/06/23 04:08:01;;;;;;;9.98;4.97;;;;;;;;;;5078379;28;20484;-58
2022/06/23 04:10:30;;;;;;;12.02;5.80;;;;;;;;;;5084924;28;20374;-58
2022/06/23 04:12:59;;;;;;;11.73;5.38;;;;;;;;;;5086605;28;20055;-56
2022/06/23 04:15:29;;;;;;;18.52;5.38;;;;;;;;;;5083368;28;20077;-56
2022/06/23 04:17:58;;;;;;;14.27;5.70;;;;;;;;;;5083019;28;20404;-56
2022/06/23 04:20:30;;;;;;;9.98;5.63;;;;;;;;;;5083883;28;20125;-56
2022/06/23 04:23:08;;;;;;;9.05;5.20;;;;;;;;;;5073732;28;20405;-56
2022/06/23 04:25:40;;;;;;;9.88;5.35;;;;;;;;;;5086062;28;20036;-56
2022/06/23 04:28:07;;;;;;;10.73;5.50;;;;;;;;;;5078758;28;20051;-56
2022/06/23 04:30:36;;;;;;;9.95;5.68;;;;;;;;;;5079848;28;20056;-55
2022/06/23 04:33:03;;;;;;;8.82;5.38;;;;;;;;;;5078641;28;20047;-56
2022/06/23 04:35:32;;;;;;;9.55;5.45;;;;;;;;;;5075896;28;20596;-56
2022/06/23 04:38:16;;;;;;;10.30;5.78;;;;;;;;;;5069640;28;20044;-55
2022/06/23 04:40:42;;;;;;;9.57;5.32;;;;;;;;;;5075815;28;20071;-56
2022/06/23 04:43:20;;;;;;;11.32;5.57;;;;;;;;;;5081572;28;20780;-56
2022/06/23 04:45:59;;;;;;;10.07;5.82;;;;;;;;;;5083054;28;20093;-56
2022/06/23 04:48:41;;;;;;;11.02;5.60;;;;;;;;;;5080127;28;20114;-56
2022/06/23 04:51:15;;;;;;;9.93;5.60;;;;;;;;;;5083551;28;20044;-56
2022/06/23 04:53:42;;;;;;;13.45;6.00;;;;;;;;;;5083920;28;20040;-56
2022/06/23 04:56:13;;;;;;;10.90;5.90;;;;;;;;;;5078299;28;20051;-56
2022/06/23 04:58:43;;;;;;;10.73;5.88;;;;;;;;;;5078711;28;20039;-56
2022/06/23 05:01:13;;;;;;;13.70;5.88;;;;;;;;;;5073068;28;20038;-56
2022/06/23 05:03:44;;;;;;;12.10;6.20;;;;;;;;;;5082972;28;20071;-56
2022/06/23 05:06:14;;;;;;;14.00;6.63;;;;;;;;;;5074629;28;20127;-59
2022/06/23 05:08:42;;;;;;;13.07;6.82;;;;;;;;;;5079782;28;20173;-56
2022/06/23 05:11:14;;;;;;;10.70;6.18;;;;;;;;;;5075434;28;20032;-56
2022/06/23 05:13:44;;;;;;;13.35;6.63;;;;;;;;;;5069225;28;20047;-56
2022/06/23 05:16:14;;;;;;;8.85;5.85;;;;;;;;;;5068994;28;20119;-56
2022/06/23 05:18:42;;;;;;;12.10;6.28;;;;;;;;;;5080374;28;20094;-57
2022/06/23 05:21:10;;;;;;;16.77;6.80;;;;;;;;;;5076320;28;20509;-56
2022/06/23 05:23:43;;;;;;;9.30;6.32;;;;;;;;;;5071039;28;20490;-56
2022/06/23 05:26:21;;;;;;;11.38;6.53;;;;;;;;;;5074899;28;20501;-56
2022/06/23 05:28:50;;;;;;;11.30;6.63;;;;;;;;;;5081176;28;20160;-55
2022/06/23 05:31:19;;;;;;;12.65;6.20;;;;;;;;;;5074843;28;20028;-56
2022/06/23 05:33:49;;;;;;;10.15;6.80;;;;;;;;;;5072104;28;20043;-56
2022/06/23 05:36:24;;;;;;;13.23;6.68;;;;;;;;;;5084369;28;20059;-56
2022/06/23 05:38:55;;;;;;;11.52;7.13;;;;;;;;;;5074321;28;20131;-56
2022/06/23 05:41:36;;;;;;;12.32;6.50;;;;;;;;;;5076634;28;20118;-56
2022/06/23 05:44:05;;;;;;;13.25;6.10;;;;;;;;;;5078573;28;20054;-56
2022/06/23 05:46:32;;;;;;;11.48;6.50;;;;;;;;;;5082058;28;20044;-56
2022/06/23 05:49:00;;;;;;;9.35;6.15;;;;;;;;;;5082127;28;20059;-56
2022/06/23 05:51:41;;;;;;;11.80;6.38;;;;;;;;;;5082079;28;21620;-58
2022/06/23 05:54:11;;;;;;;11.00;6.10;;;;;;;;;;5081796;28;20040;-58
2022/06/23 05:56:41;;;;;;;12.13;6.05;;;;;;;;;;5084157;28;20058;-57
2022/06/23 05:59:16;;;;;;;10.02;6.13;;;;;;;;;;5083482;28;20142;-57
2022/06/23 06:01:49;;;;;;;10.98;5.97;;;;;;;;;;5078952;28;20510;-57
2022/06/23 06:04:24;;;;;;;12.23;6.55;;;;;;;;;;5075916;28;20044;-57
2022/06/23 06:06:50;;;;;;;9.70;6.38;;;;;;;;;;5073098;28;20040;-58
2022/06/23 06:09:36;;;;;;;9.63;5.70;;;;;;;;;;5071419;28;20099;-57
2022/06/23 06:12:05;;;;;;;31.75;7.25;;;;;;;;;;5083490;28;20035;-57
2022/06/23 06:14:33;;;;;;;12.82;5.32;;;;;;;;;;5074710;28;20040;-56
2022/06/23 06:17:00;;;;;;;14.00;5.75;;;;;;;;;;5073854;28;20055;-56
2022/06/23 06:19:28;;;;;;;9.30;5.43;;;;;;;;;;5074737;28;20036;-56
2022/06/23 06:21:56;;;;;;;9.38;5.55;;;;;;;;;;5073870;28;20048;-59
2022/06/23 06:24:32;;;;;;;9.13;5.47;;;;;;;;;;5083360;28;20127;-57
2022/06/23 06:27:00;;;;;;;11.35;6.57;;;;;;;;;;5084399;28;20055;-57
2022/06/23 06:29:29;;;;;;;10.15;5.97;;;;;;;;;;5072470;28;20081;-57
2022/06/23 06:32:12;;;;;;;9.88;5.57;;;;;;;;;;5084734;28;20105;-57
2022/06/23 06:34:42;;;;;;;11.27;6.35;;;;;;;;;;5073821;28;20421;-57
2022/06/23 06:37:12;;;;;;;7.75;5.93;;;;;;;;;;5083735;28;20044;-57
2022/06/23 06:39:40;;;;;;;9.38;5.80;;;;;;;;;;5072755;28;20085;-56
2022/06/23 06:42:10;;;;;;;13.10;5.45;;;;;;;;;;5074215;28;20040;-57
2022/06/23 06:44:38;;;;;;;11.90;4.95;;;;;;;;;;5069075;28;20043;-57
2022/06/23 06:47:04;;;;;;;45.63;7.40;;;;;;;;;;5076713;28;20044;-57
2022/06/23 06:49:32;;;;;;;11.63;5.43;;;;;;;;;;5081359;28;20385;-56
2022/06/23 06:51:58;;;;;;;10.25;5.53;;;;;;;;;;5082252;28;20051;-56
2022/06/23 06:54:29;;;;;;;10.85;5.90;;;;;;;;;;5073576;28;20044;-56
2022/06/23 06:56:56;;;;;;;9.77;5.65;;;;;;;;;;5077676;28;20395;-57
2022/06/23 06:59:22;;;;;;;47.85;6.55;;;;;;;;;;5076640;28;20185;-58
2022/06/23 07:01:51;;;;;;;16.58;6.07;;;;;;;;;;5080631;28;21810;-57
2022/06/23 07:04:22;;;;;;;8.88;4.97;;;;;;;;;;5071870;28;20041;-57
2022/06/23 07:06:51;;;;;;;14.15;5.75;;;;;;;;;;5069551;28;21485;-61
2022/06/23 07:09:26;;;;;;;7.80;5.07;;;;;;;;;;5077887;28;20040;-57
2022/06/23 07:11:55;;;;;;;10.02;5.35;;;;;;;;;;5070343;28;20044;-57
2022/06/23 07:14:25;;;;;;;13.55;5.47;;;;;;;;;;5070868;28;20036;-57
2022/06/23 07:16:55;;;;;;;8.88;5.15;;;;;;;;;;5076757;28;20078;-57
2022/06/23 07:19:22;;;;;;;8.05;4.70;;;;;;;;;;5068303;28;20040;-57
2022/06/23 07:21:52;;;;;;;9.77;4.40;;;;;;;;;;5077647;28;20093;-58
2022/06/23 07:24:24;;;;;;;7.70;4.07;;;;;;;;;;5072354;28;20035;-58
2022/06/23 07:26:54;;;;;;;9.48;4.28;;;;;;;;;;5066552;28;20037;-57
2022/06/23 07:29:39;;;;;;;12.60;4.60;;;;;;;;;;5075603;28;20044;-57
2022/06/23 07:32:08;;;;;;;6.07;4.47;;;;;;;;;;5069829;28;20051;-57
2022/06/23 07:34:37;;;;;;;8.20;4.18;;;;;;;;;;5076762;28;20044;-57
2022/06/23 07:37:10;;;;;;;5.40;3.40;;;;;;;;;;5070190;28;20581;-58
2022/06/23 07:39:39;;;;;;;6.75;4.20;;;;;;;;;;5086099;28;20040;-57
2022/06/23 07:42:10;;;;;;;8.30;4.10;;;;;;;;;;5086204;28;20090;-57
2022/06/23 07:44:41;;;;;;;8.23;4.22;;;;;;;;;;5088072;28;20039;-58
2022/06/23 07:47:07;;;;;;;5.68;3.70;;;;;;;;;;5088367;28;20047;-57
2022/06/23 07:49:33;;;;;;;7.20;3.60;;;;;;;;;;5086270;28;20119;-57
2022/06/23 07:52:01;;;;;;;78.53;6.55;;;;;;;;;;5087310;28;20586;-57
2022/06/23 07:54:28;;;;;;;9.50;3.40;;;;;;;;;;5087712;28;20127;-57
2022/06/23 07:56:54;;;;;;;6.50;3.63;;;;;;;;;;5083299;28;20052;-58
2022/06/23 07:59:23;;;;;;;7.85;3.80;;;;;;;;;;5087687;28;20043;-58
2022/06/23 08:01:58;;;;;;;7.53;3.85;;;;;;;;;;5084934;28;20062;-57
2022/06/23 08:04:34;;;;;;;7.47;3.65;;;;;;;;;;5084355;28;20056;-57
2022/06/23 08:07:02;;;;;;;7.30;3.40;;;;;;;;;;5083227;28;20506;-58
2022/06/23 08:09:31;;;;;;;8.20;3.65;;;;;;;;;;5083761;28;20501;-57
2022/06/23 08:14:49;;;;;;;9.77;3.47;;;;;;;;;;5076250;28;20061;-58
2022/06/23 08:17:17;;;;;;;6.18;3.13;;;;;;;;;;5086264;28;20044;-58
2022/06/23 08:19:49;;;;;;;3.88;2.90;;;;;;;;;;5087312;28;20417;-57
2022/06/23 08:22:24;;;;;;;5.35;3.38;;;;;;;;;;5086117;28;20055;-58
2022/06/23 08:24:53;;;;;;;4.78;3.08;;;;;;;;;;5085879;28;20044;-58
2022/06/23 08:27:20;;;;;;;7.40;3.05;;;;;;;;;;5077293;28;20051;-58
2022/06/23 08:29:50;;;;;;;5.25;3.45;;;;;;;;;;5087476;28;20123;-58
2022/06/23 08:32:16;;;;;;;6.07;3.28;;;;;;;;;;5086628;28;20036;-57
2022/06/23 08:34:47;;;;;;;2.90;2.60;;;;;;;;;;5086288;28;20079;-58
2022/06/23 08:37:21;;;;;;;6.20;3.20;;;;;;;;;;5085661;28;20056;-58
2022/06/23 08:39:53;;;;;;;7.75;2.95;;;;;;;;;;5086015;28;20036;-58
2022/06/23 08:42:26;;;;;;;9.10;3.30;;;;;;;;;;5077088;28;20143;-58
2022/06/23 08:45:06;;;;;;;5.15;2.58;;;;;;;;;;5077355;28;20048;-58
2022/06/23 08:47:39;;;;;;;7.57;2.72;;;;;;;;;;5085718;28;20474;-57
2022/06/23 08:50:05;;;;;;;8.52;2.90;;;;;;;;;;5086726;28;20051;-57
2022/06/23 08:52:48;;;;;;;6.30;3.17;;;;;;;;;;5085806;28;20068;-57
2022/06/23 09:11:45;;;;;;;9.88;2.80;;;;;;;;;;5074880;28;20123;-58
2022/06/23 09:14:20;;;;;;;7.50;2.55;;;;;;;;;;5078401;28;20040;-58
2022/06/23 09:16:47;;;;;;;5.68;3.50;;;;;;;;;;5086277;28;20036;-58
2022/06/23 09:19:20;;;;;;;7.53;2.78;;;;;;;;;;5086054;28;20397;-58
2022/06/23 09:22:07;;;;;;;7.53;3.20;;;;;;;;;;5081623;28;20134;-57
2022/06/23 09:24:48;;;;;;;5.70;3.15;;;;;;;;;;5081579;28;20162;-57
2022/06/23 09:27:16;;;;;;;14.35;3.22;;;;;;;;;;5079051;28;20129;-58
2022/06/23 09:29:42;;;;;;;;;;;;;;;;;;5086887;28;20036;-58
2022/06/23 09:32:12;;;;;;;8.63;2.90;;;;;;;;;;5086212;28;19927;-58
2022/06/23 09:34:42;;;;;;;3.67;2.50;;;;;;;;;;5085081;28;20081;-57
2022/06/23 09:37:14;;;;;;;5.45;2.60;;;;;;;;;;5083602;28;20190;-57
2022/06/23 09:39:50;;;;;;;11.52;3.20;;;;;;;;;;5085683;28;20060;-58
2022/06/23 09:42:36;;;;;;;7.18;2.83;;;;;;;;;;5082453;28;20177;-57
2022/06/23 09:45:12;;;;;;;8.35;3.15;;;;;;;;;;5080231;28;20048;-58
2022/06/23 09:47:46;;;;;;;8.25;3.00;;;;;;;;;;5084939;28;20032;-58
2022/06/23 09:50:27;;;;;;;5.32;2.92;;;;;;;;;;5085609;28;20051;-58
2022/06/23 09:53:03;;;;;;;4.50;3.40;;;;;;;;;;5072258;28;20115;-57
2022/06/23 09:55:29;;;;;;;31.15;4.07;;;;;;;;;;5083014;28;20119;-57
2022/06/23 09:58:17;;;;;;;7.95;3.58;;;;;;;;;;5084912;28;20454;-57
2022/06/23 10:00:51;;;;;;;4.38;2.80;;;;;;;;;;5081979;28;20441;-57
2022/06/23 10:03:25;;;;;;;5.53;2.80;;;;;;;;;;5084625;28;20044;-58
2022/06/23 10:06:12;;;;;;;10.35;2.85;;;;;;;;;;5085319;28;20127;-58
2022/06/23 10:08:39;;;;;;;3.35;2.33;;;;;;;;;;5080806;28;20569;-57
2022/06/23 10:11:13;;;;;;;7.97;2.63;;;;;;;;;;5084987;28;20050;-57
2022/06/23 10:13:51;;;;;;;4.60;2.58;;;;;;;;;;5084587;28;20067;-58
2022/06/23 10:16:25;;;;;;;8.60;2.75;;;;;;;;;;5082517;28;20114;-58
2022/06/23 10:19:06;;;;;;;10.80;2.83;;;;;;;;;;5075209;28;20040;-57
2022/06/23 10:21:41;;;;;;;7.60;2.50;;;;;;;;;;5079583;28;20086;-57
2022/06/23 10:24:13;;;;;;;10.45;2.38;;;;;;;;;;5085645;28;20042;-57
2022/06/23 10:26:40;;;;;;;5.90;2.50;;;;;;;;;;5085110;28;20048;-58
2022/06/23 10:29:20;;;;;;;5.45;2.80;;;;;;;;;;5078379;28;20051;-57
2022/06/23 10:31:56;;;;;;;3.95;2.65;;;;;;;;;;5084686;28;20127;-57
2022/06/23 10:34:36;;;;;;;5.65;3.10;;;;;;;;;;5080301;28;20044;-58
2022/06/23 10:37:09;;;;;;;5.70;2.40;;;;;;;;;;5070687;28;20048;-57
2022/06/23 10:39:54;;;;;;;9.05;3.10;;;;;;;;;;5083891;28;20036;-57
2022/06/23 10:42:27;;;;;;;10.23;2.97;;;;;;;;;;5080775;28;20039;-58
2022/06/23 10:44:53;;;;;;;9.68;2.67;;;;;;;;;;5084925;28;20170;-58
2022/06/23 10:47:28;;;;;;;4.15;2.50;;;;;;;;;;5081971;28;20040;-58
2022/06/23 10:50:13;;;;;;;40.42;4.15;;;;;;;;;;5075624;28;20056;-57
2022/06/23 10:52:45;;;;;;;8.85;3.35;;;;;;;;;;5072730;28;20588;-58
2022/06/23 10:55:23;;;;;;;6.05;2.67;;;;;;;;;;5072785;28;20047;-58
2022/06/23 10:58:09;;;;;;;4.95;2.75;;;;;;;;;;5084770;28;20072;-58
2022/06/23 11:00:35;;;;;;;10.50;2.95;;;;;;;;;;5082619;28;20040;-58
2022/06/23 11:03:14;;;;;;;4.57;2.47;;;;;;;;;;5069715;28;20040;-58
2022/06/23 11:05:48;;;;;;;5.72;3.10;;;;;;;;;;5075828;28;20119;-58
2022/06/23 11:08:36;;;;;;;9.20;2.63;;;;;;;;;;5073732;28;20115;-58
2022/06/23 11:11:18;;;;;;;5.90;3.17;;;;;;;;;;5071537;28;20040;-58
2022/06/23 11:13:49;;;;;;;4.50;2.78;;;;;;;;;;5086259;28;20122;-58
2022/06/23 11:16:21;;;;;;;6.15;2.67;;;;;;;;;;5088196;28;20052;-58
2022/06/23 11:18:53;;;;;;;7.72;3.30;;;;;;;;;;5088610;28;20040;-58
2022/06/23 11:21:23;;;;;;;3.45;2.30;;;;;;;;;;5076320;28;20036;-58
2022/06/23 11:24:00;;;;;;;7.38;2.40;;;;;;;;;;5088562;28;20036;-58
2022/06/23 11:26:32;;;;;;;3.60;2.40;;;;;;;;;;5084201;28;20040;-57
2022/06/23 11:29:17;;;;;;;3.83;2.33;;;;;;;;;;5074081;28;20044;-58
2022/06/23 11:31:53;;;;;;;92.35;7.60;;;;;;;;;;5080551;28;20087;-56
2022/06/23 11:34:30;;;;;;;5.18;2.38;;;;;;;;;;5078398;28;20115;-56
2022/06/23 11:37:07;;;;;;;5.93;2.65;;;;;;;;;;5086869;28;20114;-54
2022/06/23 11:39:43;;;;;;;8.75;2.42;;;;;;;;;;5087806;28;20040;-56
2022/06/23 11:42:15;;;;;;;6.57;2.47;;;;;;;;;;5077291;28;20047;-56
2022/06/23 11:44:53;;;;;;;11.32;2.50;;;;;;;;;;5081103;28;20052;-56
2022/06/23 11:47:50;;;;;;;5.78;2.50;;;;;;;;;;5082297;28;20078;-56
2022/06/23 11:50:23;;;;;;;62.92;5.68;;;;;;;;;;5086354;28;20048;-56
2022/06/23 11:53:06;;;;;;;5.43;2.40;;;;;;;;;;5070162;28;20443;-56
2022/06/23 11:55:39;;;;;;;7.63;2.30;;;;;;;;;;5085965;28;20069;-55
2022/06/23 11:58:07;;;;;;;8.25;2.10;;;;;;;;;;5072983;28;20044;-56
2022/06/23 12:00:33;;;;;;;;;;;;;;;;;;5076155;28;20040;-56
2022/06/23 12:03:15;;;;;;;3.58;2.17;;;;;;;;;;5071628;28;20396;-56
2022/06/23 12:05:46;;;;;;;4.10;2.22;;;;;;;;;;5073826;28;20397;-56
2022/06/23 12:08:12;;;;;;;4.93;2.03;;;;;;;;;;5074416;28;20036;-56
2022/06/23 12:10:39;;;;;;;3.40;2.20;;;;;;;;;;5072977;28;20078;-56
2022/06/23 12:13:06;;;;;;;4.68;2.13;;;;;;;;;;5077502;28;20044;-56
2022/06/23 12:15:33;;;;;;;2.85;2.05;;;;;;;;;;5077063;28;20040;-56
2022/06/23 12:18:02;;;;;;;46.88;6.13;;;;;;;;;;5085473;28;20040;-56
2022/06/23 12:20:35;;;;;;;3.53;1.98;;;;;;;;;;5070485;28;20889;-56
2022/06/23 12:23:06;;;;;;;3.30;1.88;;;;;;;;;;5082853;28;20085;-56
2022/06/23 12:25:38;;;;;;;6.82;1.92;;;;;;;;;;5072360;28;20036;-56
2022/06/23 12:28:23;;;;;;;2.97;2.10;;;;;;;;;;5073796;28;20044;-56
2022/06/23 12:31:00;;;;;;;4.65;2.00;;;;;;;;;;5074326;28;20051;-56
2022/06/23 12:33:31;;;;;;;4.17;2.20;;;;;;;;;;5075931;28;20036;-56
2022/06/23 12:36:02;;;;;;;3.58;2.00;;;;;;;;;;5081539;28;20301;-56
2022/06/23 12:38:32;;;;;;;4.80;1.95;;;;;;;;;;5086674;28;20048;-56
2022/06/23 12:41:02;;;;;;;6.25;2.20;;;;;;;;;;5065011;28;20046;-56
2022/06/23 12:43:35;;;;;;;4.82;2.10;;;;;;;;;;5086905;28;20032;-56
2022/06/23 12:46:14;;;;;;;6.80;2.28;;;;;;;;;;5082234;28;20040;-56
2022/06/23 12:48:47;;;;;;;6.07;2.22;;;;;;;;;;5076857;28;20047;-59
2022/06/23 12:51:25;;;;;;;3.50;1.90;;;;;;;;;;5086007;28;20028;-56
2022/06/23 12:53:57;;;;;;;4.63;1.70;;;;;;;;;;5083558;28;20049;-56
2022/06/23 12:56:24;;;;;;;7.28;2.00;;;;;;;;;;5078680;28;20136;-56
2022/06/23 12:58:53;;;;;;;4.40;2.10;;;;;;;;;;5086538;28;20078;-56
2022/06/23 13:01:37;;;;;;;3.28;1.98;;;;;;;;;;5080316;28;20413;-56
2022/06/23 13:04:08;;;;;;;73.05;7.95;;;;;;;;;;5085601;28;20040;-56
2022/06/23 13:06:38;;;;;;;26.48;4.00;;;;;;;;;;5086203;28;20024;-56
2022/06/23 13:09:15;;;;;;;22.02;2.88;;;;;;;;;;5085068;28;20032;-56
2022/06/23 13:11:54;;;;;;;7.82;2.22;;;;;;;;;;5079760;28;20044;-56
2022/06/23 13:14:24;;;;;;;4.78;2.22;;;;;;;;;;5080288;28;20489;-56
2022/06/23 13:16:58;;;;;;;6.07;1.92;;;;;;;;;;5086616;28;20131;-56
2022/06/23 13:19:35;;;;;;;2.88;1.67;;;;;;;;;;5085951;28;20059;-56
2022/06/23 13:22:03;;;;;;;4.35;2.40;;;;;;;;;;5074772;28;20401;-56
2022/06/23 13:24:33;;;;;;;8.27;2.13;;;;;;;;;;5084891;28;20497;-56
2022/06/23 13:27:00;;;;;;;6.30;2.78;;;;;;;;;;5086161;28;20115;-56
2022/06/23 13:29:36;;;;;;;4.68;2.15;;;;;;;;;;5076351;28;20040;-57
2022/06/23 13:32:09;;;;;;;6.88;2.15;;;;;;;;;;5085457;28;20055;-56
2022/06/23 13:34:40;;;;;;;5.90;2.25;;;;;;;;;;5077636;28;20032;-56
2022/06/23 13:37:12;;;;;;;4.13;2.30;;;;;;;;;;5071278;28;20094;-57
2022/06/23 13:39:46;;;;;;;3.13;2.13;;;;;;;;;;5085132;28;20048;-56
2022/06/23 13:42:17;;;;;;;2.65;1.83;;;;;;;;;;5078196;28;20485;-56
2022/06/23 13:44:49;;;;;;;7.05;1.85;;;;;;;;;;5081597;28;20100;-56
2022/06/23 13:47:18;;;;;;;5.95;2.50;;;;;;;;;;5084284;28;20032;-57
2022/06/23 13:49:49;;;;;;;5.03;2.05;;;;;;;;;;5081433;28;20119;-57
2022/06/23 13:52:28;;;;;;;2.95;1.88;;;;;;;;;;5083958;28;20485;-57
2022/06/23 13:55:00;;;;;;;4.28;1.73;;;;;;;;;;5079190;28;20066;-57
2022/06/23 13:57:40;;;;;;;5.22;2.13;;;;;;;;;;5082293;28;20136;-57
2022/06/23 14:00:11;;;;;;;4.18;2.25;;;;;;;;;;5073072;28;20247;-57
2022/06/23 14:02:48;;;;;;;3.90;1.90;;;;;;;;;;5071433;28;20125;-57
2022/06/23 14:05:23;;;;;;;3.38;2.10;;;;;;;;;;5075993;28;20083;-56
2022/06/23 14:07:54;;;;;;;2.88;1.88;;;;;;;;;;5075397;28;20043;-57
2022/06/23 14:10:29;;;;;;;8.93;1.90;;;;;;;;;;5077471;28;20086;-57
2022/06/23 14:13:14;;;;;;;4.55;2.30;;;;;;;;;;5076488;28;20048;-57
2022/06/23 14:15:48;;;;;;;6.40;2.22;;;;;;;;;;5084901;28;20109;-58
2022/06/23 14:18:27;;;;;;;2.47;1.52;;;;;;;;;;5077278;28;20048;-58
2022/06/23 14:20:57;;;;;;;4.43;1.70;;;;;;;;;;5076487;28;20127;-57
2022/06/23 14:23:27;;;;;;;4.22;2.25;;;;;;;;;;5071930;28;20072;-57
2022/06/23 14:25:56;;;;;;;2.28;1.80;;;;;;;;;;5078279;28;20074;-57
2022/06/23 14:28:26;;;;;;;4.50;2.10;;;;;;;;;;5079252;28;20201;-57
2022/06/23 14:31:16;;;;;;;4.65;1.95;;;;;;;;;;5082800;28;20125;-57
2022/06/23 14:33:46;;;;;;;3.60;2.00;;;;;;;;;;5083298;28;20047;-57
2022/06/23 14:36:16;;;;;;;4.07;2.00;;;;;;;;;;5080163;28;21268;-58
2022/06/23 14:38:43;;;;;;;4.38;2.22;;;;;;;;;;5080085;28;20059;-57
2022/06/23 14:41:09;;;;;;;3.55;2.00;;;;;;;;;;5082567;28;20028;-57
2022/06/23 14:43:46;;;;;;;5.38;2.10;;;;;;;;;;5075395;28;20123;-57
2022/06/23 14:46:19;;;;;;;28.25;3.42;;;;;;;;;;5100067;28;20397;-57
2022/06/23 14:49:00;;;;;;;17.80;2.33;;;;;;;;;;5075951;28;20055;-57
2022/06/23 14:51:42;;;;;;;4.55;2.13;;;;;;;;;;5072633;28;20045;-58
2022/06/23 14:54:17;;;;;;;3.88;2.00;;;;;;;;;;5077994;28;20468;-58
2022/06/23 14:56:46;;;;;;;9.50;2.03;;;;;;;;;;5074195;28;20515;-57
2022/06/23 14:59:27;;;;;;;4.93;1.63;;;;;;;;;;5074632;28;20051;-57
2022/06/23 15:02:14;;;;;;;5.65;2.00;;;;;;;;;;5070593;28;20065;-58
2022/06/23 15:05:02;;;;;;;5.47;1.90;;;;;;;;;;5075156;28;20037;-60
2022/06/23 15:07:32;;;;;;;3.55;2.10;;;;;;;;;;5071305;28;20044;-57
2022/06/23 15:09:59;;;;;;;3.20;1.92;;;;;;;;;;5069709;28;20093;-57
2022/06/23 15:12:37;;;;;;;5.85;2.30;;;;;;;;;;5071863;28;20071;-57
2022/06/23 15:15:09;;;;;;;2.40;1.98;;;;;;;;;;5073606;28;20032;-57
2022/06/23 15:17:41;;;;;;;5.40;2.00;;;;;;;;;;5080654;28;20052;-58
2022/06/23 15:20:22;;;;;;;2.67;2.17;;;;;;;;;;5079189;28;20036;-58
2022/06/23 15:23:10;;;;;;;5.35;2.10;;;;;;;;;;5079465;28;20150;-58
2022/06/23 15:25:43;;;;;;;3.95;2.25;;;;;;;;;;5081318;28;20101;-58
2022/06/23 15:28:24;;;;;;;4.85;2.15;;;;;;;;;;5081856;28;20757;-58
2022/06/23 15:30:56;;;;;;;3.92;1.85;;;;;;;;;;5082323;28;20110;-58
2022/06/23 15:33:27;;;;;;;4.47;1.92;;;;;;;;;;5081260;28;20047;-58
2022/06/23 15:35:57;;;;;;;55.90;4.95;;;;;;;;;;5081201;28;20071;-58
2022/06/23 15:38:31;;;;;;;7.85;2.05;;;;;;;;;;5081482;28;20490;-58